Manassas Regional Harry P. Davis field


Codes: KHEF/
Name: Manassas Regional Harry P. Davis field
City: Manassas
Country: United States
Elevation: 192 ft.

Photos at Manassas Regional Harry P. Davis field


   Photos courtesy of SpottingLog. You can add your own sightings and photos by signing up for a free trial today.



No photos found.

Weather at Manassas Regional Harry P. Davis field


Time (UTC)DescriptionTempratureWindCloud coverageVisibilityPressureHumidity
21-Feb-2024 03:00Clear Sky3°C4 mph, SE4%10000m1029hPa71%
21-Feb-2024 06:00Few Clouds1°C2 mph, SE24%10000m1030hPa85%
21-Feb-2024 09:00Broken Clouds-1°C4 mph, SE64%10000m1030hPa91%
21-Feb-2024 12:00Scattered Clouds-1°C2 mph, SE43%10000m1031hPa88%
21-Feb-2024 15:00Scattered Clouds5°C4 mph, SE34%10000m1031hPa57%
21-Feb-2024 18:00Few Clouds9°C4 mph, SE21%10000m1028hPa48%
21-Feb-2024 21:00Clear Sky9°C7 mph, SE5%10000m1025hPa49%
22-Feb-2024 00:00Clear Sky3°C7 mph, SE6%10000m1025hPa73%
22-Feb-2024 03:00Few Clouds1°C4 mph, SE14%10000m1024hPa73%
22-Feb-2024 06:00Scattered Clouds0°C4 mph, S28%10000m1023hPa83%
22-Feb-2024 09:00Few Clouds-0°C4 mph, S12%10000m1021hPa89%
22-Feb-2024 12:00Scattered Clouds0°C4 mph, S42%10000m1019hPa90%
22-Feb-2024 15:00Overcast Clouds7°C9 mph, S98%10000m1016hPa64%
22-Feb-2024 18:00Overcast Clouds12°C11 mph, S98%10000m1011hPa56%
22-Feb-2024 21:00Overcast Clouds12°C9 mph, S96%10000m1007hPa62%
23-Feb-2024 00:00Overcast Clouds10°C9 mph, S98%10000m1005hPa76%
23-Feb-2024 03:00Light Rain10°C11 mph, S100%10000m1002hPa80%
23-Feb-2024 06:00Light Rain10°C11 mph, SW100%10000m1000hPa83%
23-Feb-2024 09:00Overcast Clouds10°C9 mph, SW100%10000m997hPa86%
23-Feb-2024 12:00Light Rain9°C7 mph, W100%10000m998hPa91%
23-Feb-2024 15:00Overcast Clouds11°C11 mph, NW100%10000m1000hPa70%
23-Feb-2024 18:00Overcast Clouds14°C13 mph, NW90%10000m999hPa52%
23-Feb-2024 21:00Overcast Clouds14°C9 mph, NW85%10000m1000hPa53%
24-Feb-2024 00:00Broken Clouds9°C11 mph, NW58%10000m1003hPa67%
24-Feb-2024 03:00Clear Sky6°C7 mph, N7%10000m1005hPa69%
24-Feb-2024 06:00Clear Sky4°C7 mph, N8%10000m1006hPa73%
24-Feb-2024 09:00Few Clouds3°C7 mph, NW16%10000m1007hPa78%
24-Feb-2024 12:00Few Clouds1°C7 mph, N19%10000m1010hPa79%
24-Feb-2024 15:00Broken Clouds3°C11 mph, N62%10000m1013hPa50%
24-Feb-2024 18:00Broken Clouds5°C11 mph, N79%10000m1013hPa42%
24-Feb-2024 21:00Overcast Clouds6°C9 mph, N88%10000m1014hPa39%
25-Feb-2024 00:00Scattered Clouds2°C4 mph, N49%10000m1017hPa55%
25-Feb-2024 03:00Clear Sky-0°C4 mph, NW0%10000m1020hPa63%
25-Feb-2024 06:00Clear Sky-1°C2 mph, NW0%10000m1022hPa63%
25-Feb-2024 09:00Clear Sky-1°C2 mph, SW0%10000m1022hPa61%
25-Feb-2024 12:00Clear Sky-2°C4 mph, S2%10000m1023hPa63%
25-Feb-2024 15:00Broken Clouds5°C9 mph, S84%10000m1023hPa43%
25-Feb-2024 18:00Scattered Clouds9°C11 mph, SW44%10000m1020hPa42%
25-Feb-2024 21:00Scattered Clouds10°C11 mph, SW37%10000m1018hPa48%
26-Feb-2024 00:00Broken Clouds7°C9 mph, S68%10000m1018hPa57%